Time;durP1;ratioP1;P1;durP2;ratioP2;P2;SDS_P1;SDS_P2;PMS_P1;PMS_P2;Temp;Humidity;BMP_temperature;BMP_pressure;BME280_temperature;BME280_humidity;BME280_pressure;Samples;Min_cycle;Max_cycle;Signal;HPM_P1;HPM_P2
2024/01/19 00:01:50;;;;;;;;;;;;;;;17.30;63.44;99583.88;7394603;19;1666;-38
2024/01/19 00:04:19;;;;;;;;;;;;;;;17.27;63.91;99578.84;7394443;19;1479;-38
2024/01/19 00:06:50;;;;;;;;;;;;;;;17.84;62.15;99576.63;7394881;19;1845;-38
2024/01/19 00:09:18;;;;;;;;;;;;;;;18.28;60.86;99563.19;7393296;19;1830;-38
2024/01/19 00:11:46;;;;;;;;;;;;;;;18.18;61.15;99566.97;7393785;19;1502;-38
2024/01/19 00:14:15;;;;;;;;;;;;;;;17.82;61.72;99583.09;7393315;19;1121;-38
2024/01/19 00:16:44;;;;;;;;;;;;;;;17.59;62.37;99582.78;7393925;19;1346;-38
2024/01/19 00:19:12;;;;;;;;;;;;;;;17.44;62.59;99577.97;7392361;19;1923;-38
2024/01/19 00:21:44;;;;;;;;;;;;;;;17.37;62.86;99584.94;7395180;19;1090;-38
2024/01/19 00:24:15;;;;;;;;;;;;;;;17.26;63.41;99579.81;7393537;19;1814;-38
2024/01/19 00:26:44;;;;;;;;;;;;;;;17.61;62.52;99591.50;7393994;19;1204;-38
2024/01/19 00:29:13;;;;;;;;;;;;;;;18.01;61.51;99598.97;7392637;19;1860;-38
2024/01/19 00:31:43;;;;;;;;;;;;;;;18.14;61.32;99609.25;7378936;19;1522;-38
2024/01/19 00:34:11;;;;;;;;;;;;;;;17.82;61.74;99588.44;7394336;19;1632;-38
2024/01/19 00:36:39;;;;;;;;;;;;;;;17.56;62.47;99594.59;7395099;19;1026;-38
2024/01/19 00:39:07;;;;;;;;;;;;;;;17.48;62.63;99594.53;7393652;19;1583;-38
2024/01/19 00:41:38;;;;;;;;;;;;;;;17.44;62.75;99595.84;7392879;19;1551;-38
2024/01/19 00:44:07;;;;;;;;;;;;;;;17.26;63.17;99591.34;7393655;19;1830;-38
2024/01/19 00:46:36;;;;;;;;;;;;;;;17.39;62.96;99574.94;7392926;19;1531;-38
2024/01/19 00:49:05;;;;;;;;;;;;;;;17.85;61.62;99582.84;7392515;19;1848;-38
2024/01/19 00:51:33;;;;;;;;;;;;;;;18.12;61.12;99584.50;7393861;19;1678;-38
2024/01/19 00:54:01;;;;;;;;;;;;;;;17.88;61.52;99578.00;7393019;19;1618;-38
2024/01/19 00:56:30;;;;;;;;;;;;;;;17.66;61.99;99589.16;7393697;19;1489;-38
2024/01/19 00:59:01;;;;;;;;;;;;;;;17.53;62.31;99588.72;7391656;19;1706;-38
2024/01/19 01:01:29;;;;;;;;;;;;;;;17.40;62.75;99589.13;7393649;19;1600;-38
2024/01/19 01:03:58;;;;;;;;;;;;;;;17.35;62.86;99581.59;7391657;19;1514;-38
2024/01/19 01:06:27;;;;;;;;;;;;;;;17.32;63.07;99589.91;7391345;19;1575;-38
2024/01/19 01:08:55;;;;;;;;;;;;;;;17.57;62.39;99584.78;7390048;19;1844;-38
2024/01/19 01:11:24;;;;;;;;;;;;;;;17.89;61.54;99582.34;7387982;19;1537;-38
2024/01/19 01:13:52;;;;;;;;;;;;;;;18.19;60.82;99593.56;7390621;19;3146;-38
2024/01/19 01:16:23;;;;;;;;;;;;;;;17.97;61.32;99597.63;7392869;19;1023;-38
2024/01/19 01:18:51;;;;;;;;;;;;;;;17.63;61.82;99595.69;7392313;19;1143;-38
2024/01/19 01:21:20;;;;;;;;;;;;;;;17.46;62.41;99592.00;7391757;19;1532;-41
2024/01/19 01:23:48;;;;;;;;;;;;;;;17.38;62.67;99607.97;7391608;19;1152;-38
2024/01/19 01:26:16;;;;;;;;;;;;;;;17.30;63.02;99597.22;7392211;19;1737;-38
2024/01/19 01:28:45;;;;;;;;;;;;;;;17.28;63.17;99607.22;7390551;19;1861;-38
2024/01/19 01:31:13;;;;;;;;;;;;;;;17.19;63.25;99627.69;7375907;19;1389;-38
2024/01/19 01:33:44;;;;;;;;;;;;;;;17.31;63.09;99588.22;7391216;19;1261;-38
2024/01/19 01:36:12;;;;;;;;;;;;;;;17.65;62.23;99599.03;7392122;19;1730;-40
2024/01/19 01:38:41;;;;;;;;;;;;;;;17.93;61.27;99596.25;7391384;19;1841;-38
2024/01/19 01:41:09;;;;;;;;;;;;;;;18.16;60.66;99606.41;7392216;19;1378;-38
2024/01/19 01:43:37;;;;;;;;;;;;;;;18.19;60.50;99593.56;7391980;19;1137;-39
2024/01/19 01:46:06;;;;;;;;;;;;;;;18.18;60.27;99583.03;7391582;19;1782;-38
2024/01/19 01:48:35;;;;;;;;;;;;;;;18.24;60.27;99607.31;7389094;19;1830;-38
2024/01/19 01:51:06;;;;;;;;;;;;;;;18.23;60.39;99592.25;7392244;19;1813;-39
2024/01/19 01:53:34;;;;;;;;;;;;;;;18.22;60.24;99595.09;7390863;19;1238;-38
2024/01/19 01:56:05;;;;;;;;;;;;;;;18.27;60.27;99593.63;7390848;19;1678;-38
2024/01/19 01:58:33;;;;;;;;;;;;;;;18.23;60.04;99584.22;7390427;19;1289;-38
2024/01/19 02:01:02;;;;;;;;;;;;;;;18.26;60.07;99585.75;7390571;19;1745;-38
2024/01/19 02:03:30;;;;;;;;;;;;;;;18.25;60.03;99578.72;7390928;19;1564;-38
2024/01/19 02:05:58;;;;;;;;;;;;;;;18.27;60.17;99588.25;7390903;19;1491;-38
2024/01/19 02:08:29;;;;;;;;;;;;;;;18.24;60.18;99583.25;7389684;19;1845;-39
2024/01/19 02:10:58;;;;;;;;;;;;;;;18.26;60.11;99580.38;7391939;19;944;-39
2024/01/19 02:13:26;;;;;;;;;;;;;;;18.26;60.03;99591.94;7390833;19;1924;-38
2024/01/19 02:15:59;;;;;;;;;;;;;;;18.31;60.02;99601.34;7390439;19;1161;-38
2024/01/19 02:18:28;;;;;;;;;;;;;;;18.36;59.66;99591.81;7390292;19;1543;-38
2024/01/19 02:20:56;;;;;;;;;;;;;;;18.33;59.72;99594.81;7391065;19;1859;-38
2024/01/19 02:23:28;;;;;;;;;;;;;;;18.38;59.75;99607.72;7396537;19;1477;-38
2024/01/19 02:25:59;;;;;;;;;;;;;;;18.36;59.58;99604.34;7397007;19;1233;-38
2024/01/19 02:28:28;;;;;;;;;;;;;;;18.34;59.60;99598.31;7396271;19;1845;-38
2024/01/19 02:30:56;;;;;;;;;;;;;;;18.33;59.90;99612.72;7381395;19;1302;-38
2024/01/19 02:33:24;;;;;;;;;;;;;;;18.35;59.70;99629.47;7397430;19;1050;-38
2024/01/19 02:35:53;;;;;;;;;;;;;;;18.38;59.48;99626.44;7396370;19;1404;-38
2024/01/19 02:38:21;;;;;;;;;;;;;;;18.37;59.45;99614.91;7397546;19;1742;-38
2024/01/19 02:40:49;;;;;;;;;;;;;;;18.37;59.50;99614.91;7397711;19;1462;-38
2024/01/19 02:43:20;;;;;;;;;;;;;;;18.37;59.47;99600.69;7397653;19;1842;-38
2024/01/19 02:45:48;;;;;;;;;;;;;;;18.37;59.42;99616.75;7397157;19;1492;-38
2024/01/19 02:48:17;;;;;;;;;;;;;;;18.36;59.57;99617.75;7396450;19;1841;-38
2024/01/19 02:50:45;;;;;;;;;;;;;;;18.35;59.66;99616.06;7397487;19;1626;-38
2024/01/19 02:53:14;;;;;;;;;;;;;;;18.40;59.53;99616.41;7396955;19;1467;-38
2024/01/19 02:55:42;;;;;;;;;;;;;;;18.40;59.36;99611.06;7395690;19;1214;-39
2024/01/19 02:58:10;;;;;;;;;;;;;;;18.42;59.34;99626.00;7395841;19;1332;-38
2024/01/19 03:00:41;;;;;;;;;;;;;;;18.40;59.50;99624.44;7396698;19;1631;-38
2024/01/19 03:03:09;;;;;;;;;;;;;;;18.43;59.39;99630.31;7396371;19;1310;-38
2024/01/19 03:05:38;;;;;;;;;;;;;;;18.35;59.59;99622.25;7395099;19;1705;-39
2024/01/19 03:08:06;;;;;;;;;;;;;;;18.38;59.44;99629.13;7396123;19;1854;-38
2024/01/19 03:10:34;;;;;;;;;;;;;;;18.32;59.64;99621.72;7396815;19;1141;-39
2024/01/19 03:13:03;;;;;;;;;;;;;;;18.37;59.44;99636.31;7396163;19;1814;-38
2024/01/19 03:15:31;;;;;;;;;;;;;;;18.39;59.27;99620.94;7396573;19;1767;-38
2024/01/19 03:18:02;;;;;;;;;;;;;;;18.43;59.44;99629.50;7395309;19;1329;-38
2024/01/19 03:20:30;;;;;;;;;;;;;;;18.36;59.44;99620.41;7395496;19;1680;-38
2024/01/19 03:22:59;;;;;;;;;;;;;;;18.37;59.29;99616.75;7395628;19;1765;-38
2024/01/19 03:25:27;;;;;;;;;;;;;;;18.32;59.33;99621.72;7395719;19;1478;-38
2024/01/19 03:27:55;;;;;;;;;;;;;;;18.36;59.37;99625.75;7395423;19;1835;-38
2024/01/19 03:30:24;;;;;;;;;;;;;;;18.33;59.47;99624.25;7395662;19;1706;-38
2024/01/19 03:32:52;;;;;;;;;;;;;;;18.38;59.44;99615.75;7377350;19;1753;-38
2024/01/19 03:35:23;;;;;;;;;;;;;;;18.35;59.45;99624.94;7393111;19;1797;-38
2024/01/19 03:37:51;;;;;;;;;;;;;;;18.35;59.61;99629.47;7394881;19;1731;-38
2024/01/19 03:40:20;;;;;;;;;;;;;;;18.37;59.36;99641.69;7395305;19;1320;-38
2024/01/19 03:42:48;;;;;;;;;;;;;;;18.42;59.32;99643.88;7395746;19;1544;-38
2024/01/19 03:45:17;;;;;;;;;;;;;;;18.33;59.48;99631.44;7395542;19;1504;-38
2024/01/19 03:47:46;;;;;;;;;;;;;;;18.38;59.29;99642.50;7394497;19;1197;-38
2024/01/19 03:50:15;;;;;;;;;;;;;;;18.33;59.20;99628.78;7392410;19;1850;-38
2024/01/19 03:52:46;;;;;;;;;;;;;;;18.34;59.47;99647.34;7394439;19;1650;-38
2024/01/19 03:55:14;;;;;;;;;;;;;;;18.33;59.35;99644.84;7395280;19;1516;-38
2024/01/19 03:57:42;;;;;;;;;;;;;;;18.37;59.51;99656.91;7394565;19;1521;-38
2024/01/19 04:00:11;;;;;;;;;;;;;;;18.34;59.32;99639.31;7394809;19;1533;-39
2024/01/19 04:02:40;;;;;;;;;;;;;;;18.48;59.18;99653.94;7392441;19;1458;-45
2024/01/19 04:05:08;;;;;;;;;;;;;;;18.59;58.74;99651.00;7395290;19;955;-38
2024/01/19 04:07:37;;;;;;;;;;;;;;;18.68;58.52;99652.72;7393884;19;1810;-38
2024/01/19 04:10:08;;;;;;;;;;;;;;;18.56;58.70;99651.31;7392724;19;1851;-38
2024/01/19 04:12:36;;;;;;;;;;;;;;;18.49;58.99;99652.94;7393686;19;1872;-39
2024/01/19 04:15:06;;;;;;;;;;;;;;;18.51;58.94;99656.31;7393749;19;1525;-38
2024/01/19 04:17:34;;;;;;;;;;;;;;;18.53;58.89;99664.19;7392518;19;1298;-38
2024/01/19 04:20:04;;;;;;;;;;;;;;;18.55;58.87;99659.50;7392372;19;1888;-38
2024/01/19 04:22:33;;;;;;;;;;;;;;;18.55;58.95;99675.56;7395401;19;1733;-38
2024/01/19 04:25:01;;;;;;;;;;;;;;;18.51;58.88;99661.66;7394731;19;1339;-38
2024/01/19 04:27:32;;;;;;;;;;;;;;;18.50;58.91;99673.34;7395029;19;1548;-38
2024/01/19 04:30:00;;;;;;;;;;;;;;;18.51;59.09;99680.41;7392039;19;1837;-39
2024/01/19 04:32:29;;;;;;;;;;;;;;;18.55;59.19;99687.13;7379378;19;1566;-38
2024/01/19 04:34:57;;;;;;;;;;;;;;;18.24;59.62;99679.56;7393821;19;1554;-38
2024/01/19 04:37:25;;;;;;;;;;;;;;;17.86;60.10;99691.47;7393585;19;1309;-38
2024/01/19 04:39:54;;;;;;;;;;;;;;;17.65;61.05;99689.09;7391384;19;1043;-38
2024/01/19 04:42:22;;;;;;;;;;;;;;;17.43;60.99;99704.59;7385591;19;1563;-38
2024/01/19 04:44:53;;;;;;;;;;;;;;;17.35;61.65;99714.31;7388951;19;1810;-38
2024/01/19 04:47:21;;;;;;;;;;;;;;;17.65;61.19;99705.13;7387994;19;1754;-38
2024/01/19 04:49:50;;;;;;;;;;;;;;;18.43;59.52;99702.59;7391518;19;1882;-38
2024/01/19 04:52:18;;;;;;;;;;;;;;;19.06;57.82;99704.13;7393273;19;1138;-38
2024/01/19 04:54:46;;;;;;;;;;;;;;;19.24;57.39;99720.09;7392085;19;1824;-38
2024/01/19 04:57:14;;;;;;;;;;;;;;;19.17;58.12;99702.16;7392968;19;1210;-39
2024/01/19 04:59:43;;;;;;;;;;;;;;;19.05;58.07;99725.72;7393364;19;1188;-39
2024/01/19 05:02:14;;;;;;;;;;;;;;;18.97;58.51;99715.81;7391874;19;1411;-38
2024/01/19 05:04:43;;;;;;;;;;;;;;;18.84;58.72;99710.03;7391876;19;1436;-38
2024/01/19 05:07:12;;;;;;;;;;;;;;;18.78;58.97;99721.38;7392472;19;1904;-39
2024/01/19 05:09:40;;;;;;;;;;;;;;;18.80;58.88;99719.41;7391834;19;1847;-38
2024/01/19 05:12:08;;;;;;;;;;;;;;;18.79;58.92;99725.75;7392901;19;1803;-38
2024/01/19 05:14:37;;;;;;;;;;;;;;;18.73;59.01;99729.06;7393310;19;1606;-38
2024/01/19 05:17:05;;;;;;;;;;;;;;;18.73;58.91;99724.53;7392217;19;1436;-39
2024/01/19 05:19:36;;;;;;;;;;;;;;;18.70;59.02;99738.22;7391836;19;1567;-39
2024/01/19 05:22:04;;;;;;;;;;;;;;;18.69;58.82;99742.75;7390917;19;1437;-39
2024/01/19 05:24:33;;;;;;;;;;;;;;;18.73;58.71;99732.56;7392605;19;1234;-38
2024/01/19 05:27:01;;;;;;;;;;;;;;;18.71;58.94;99737.25;7392881;19;1032;-39
2024/01/19 05:29:29;;;;;;;;;;;;;;;18.74;58.80;99742.28;7391113;19;1900;-38
2024/01/19 05:31:58;;;;;;;;;;;;;;;18.72;58.72;99746.09;7377502;19;1432;-38
2024/01/19 05:34:26;;;;;;;;;;;;;;;18.95;58.27;99759.84;7391967;19;1452;-38
2024/01/19 05:36:57;;;;;;;;;;;;;;;19.04;57.90;99756.22;7391711;19;1833;-38
2024/01/19 05:39:25;;;;;;;;;;;;;;;19.10;57.74;99752.88;7392815;19;1225;-38
2024/01/19 05:41:54;;;;;;;;;;;;;;;19.04;57.87;99753.53;7388799;19;1545;-38
2024/01/19 05:44:22;;;;;;;;;;;;;;;18.76;58.26;99758.19;7392124;19;1838;-38
2024/01/19 05:46:50;;;;;;;;;;;;;;;18.60;58.76;99770.50;7391363;19;1725;-39
2024/01/19 05:49:19;;;;;;;;;;;;;;;18.61;58.89;99768.66;7389934;19;1843;-39
2024/01/19 05:51:47;;;;;;;;;;;;;;;18.66;58.75;99761.81;7392029;19;1063;-39
2024/01/19 05:54:18;;;;;;;;;;;;;;;18.80;58.37;99754.22;7391653;19;1250;-38
2024/01/19 05:56:46;;;;;;;;;;;;;;;18.78;58.18;99773.13;7391987;19;1325;-39
2024/01/19 05:59:15;;;;;;;;;;;;;;;18.56;58.98;99773.63;7399593;19;1531;-38
2024/01/19 06:01:43;;;;;;;;;;;;;;;18.46;59.35;99768.38;7398467;19;1515;-39
2024/01/19 06:04:11;;;;;;;;;;;;;;;18.43;59.38;99776.72;7398676;19;1582;-38
2024/01/19 06:06:40;;;;;;;;;;;;;;;18.43;59.50;99777.56;7397536;19;1418;-38
2024/01/19 06:09:08;;;;;;;;;;;;;;;18.35;59.61;99766.78;7397971;19;1843;-38
2024/01/19 06:11:39;;;;;;;;;;;;;;;18.40;59.42;99772.53;7396070;19;1804;-39
2024/01/19 06:14:07;;;;;;;;;;;;;;;18.38;59.57;99800.44;7399327;19;1492;-38
2024/01/19 06:16:39;;;;;;;;;;;;;;;18.46;59.21;99790.63;7398403;19;1558;-38
2024/01/19 06:19:08;;;;;;;;;;;;;;;18.48;59.20;99772.59;7398564;19;1147;-38
2024/01/19 06:21:36;;;;;;;;;;;;;;;18.45;59.31;99772.88;7396331;19;1711;-38
2024/01/19 06:24:04;;;;;;;;;;;;;;;18.45;59.17;99788.94;7398123;19;1489;-38
2024/01/19 06:26:34;;;;;;;;;;;;;;;18.47;59.14;99788.78;7396379;19;1230;-38
2024/01/19 06:29:05;;;;;;;;;;;;;;;18.55;59.07;99802.25;7394609;19;1833;-38
2024/01/19 06:31:34;;;;;;;;;;;;;;;18.64;59.00;99812.03;7390658;19;1353;-38
2024/01/19 06:34:02;;;;;;;;;;;;;;;18.72;58.64;99818.41;7394599;19;1380;-38
2024/01/19 06:36:31;;;;;;;;;;;;;;;18.70;58.68;99818.56;7398614;19;1761;-38
2024/01/19 06:38:59;;;;;;;;;;;;;;;18.74;58.49;99816.41;7397542;19;1578;-38
2024/01/19 06:41:27;;;;;;;;;;;;;;;19.13;57.65;99830.25;7394586;19;1661;-38
2024/01/19 06:43:56;;;;;;;;;;;;;;;19.48;57.13;99825.75;7395809;19;1235;-38
2024/01/19 06:46:26;;;;;;;;;;;;;;;19.31;57.11;99848.94;7393482;19;1848;-38
2024/01/19 06:48:55;;;;;;;;;;;;;;;18.59;58.56;99842.94;7397754;19;1821;-38
2024/01/19 06:51:28;;;;;;;;;;;;;;;18.15;59.70;99864.28;7394131;19;1864;-38
2024/01/19 06:53:56;;;;;;;;;;;;;;;17.96;60.37;99855.38;7397161;19;1807;-38
2024/01/19 06:56:25;;;;;;;;;;;;;;;17.87;60.25;99870.53;7397024;19;1733;-40
2024/01/19 06:58:54;;;;;;;;;;;;;;;17.89;60.29;99857.84;7396220;19;1719;-38
2024/01/19 07:01:22;;;;;;;;;;;;;;;18.44;58.55;99858.69;7395306;19;1396;-39
2024/01/19 07:03:53;;;;;;;;;;;;;;;19.01;57.56;99864.53;7393465;19;1485;-40
2024/01/19 07:06:22;;;;;;;;;;;;;;;19.32;57.01;99864.06;7395839;19;1421;-40
2024/01/19 07:08:50;;;;;;;;;;;;;;;19.30;56.98;99865.19;7393484;19;1533;-38
2024/01/19 07:11:20;;;;;;;;;;;;;;;18.81;58.20;99863.06;7391772;19;1854;-38
2024/01/19 07:13:48;;;;;;;;;;;;;;;18.73;58.27;99860.28;7397342;19;1201;-38
2024/01/19 07:16:16;;;;;;;;;;;;;;;18.91;58.04;99861.13;7396739;19;1919;-38
2024/01/19 07:18:44;;;;;;;;;;;;;;;19.14;57.58;99858.75;7391201;19;1473;-41
2024/01/19 07:21:16;;;;;;;;;;;;;;;19.24;57.29;99878.25;7380428;19;1313;-41
2024/01/19 07:23:44;;;;;;;;;;;;;;;19.27;56.58;99864.50;7395000;19;1586;-42
2024/01/19 07:26:13;;;;;;;;;;;;;;;19.27;56.62;99863.69;7395201;19;1020;-41
2024/01/19 07:28:41;;;;;;;;;;;;;;;19.28;56.68;99854.66;7394917;19;1133;-40
2024/01/19 07:31:09;;;;;;;;;;;;;;;19.33;56.87;99867.56;7391511;19;1872;-41
2024/01/19 07:33:38;;;;;;;;;;;;;;;19.27;56.63;99872.56;7377028;19;1758;-40
2024/01/19 07:36:06;;;;;;;;;;;;;;;19.24;56.79;99874.72;7394134;19;1484;-40
2024/01/19 07:38:37;;;;;;;;;;;;;;;19.20;56.68;99870.66;7393407;19;1409;-41
2024/01/19 07:41:06;;;;;;;;;;;;;;;19.35;56.45;99874.44;7395124;19;1037;-41
2024/01/19 07:43:34;;;;;;;;;;;;;;;19.22;56.77;99866.00;7394806;19;1849;-41
2024/01/19 07:46:03;;;;;;;;;;;;;;;19.26;56.67;99864.69;7394117;19;1818;-40
2024/01/19 07:48:31;;;;;;;;;;;;;;;19.31;56.54;99881.13;7393615;19;1469;-40
2024/01/19 07:51:00;;;;;;;;;;;;;;;19.34;56.58;99859.38;7390580;19;1866;-40
2024/01/19 07:53:28;;;;;;;;;;;;;;;19.35;56.51;99861.03;7394547;19;1652;-45
2024/01/19 07:55:59;;;;;;;;;;;;;;;19.35;56.81;99862.88;7392227;19;1261;-42
2024/01/19 07:58:28;;;;;;;;;;;;;;;19.35;56.78;99871.75;7391972;19;1464;-40
2024/01/19 08:00:56;;;;;;;;;;;;;;;19.51;56.37;99875.53;7392346;19;1592;-40
2024/01/19 08:03:25;;;;;;;;;;;;;;;19.52;56.50;99863.78;7393036;19;1222;-40
2024/01/19 08:05:53;;;;;;;;;;;;;;;19.52;56.46;99877.19;7392087;19;1302;-41
2024/01/19 08:08:21;;;;;;;;;;;;;;;19.54;56.42;99877.91;7392370;19;1484;-40
2024/01/19 08:10:50;;;;;;;;;;;;;;;19.55;56.63;99855.44;7391367;19;1845;-41
2024/01/19 08:13:21;;;;;;;;;;;;;;;19.59;56.52;99876.38;7393229;19;1663;-40
2024/01/19 08:15:49;;;;;;;;;;;;;;;19.63;56.46;99863.50;7392473;19;1529;-40
2024/01/19 08:18:17;;;;;;;;;;;;;;;19.61;56.50;99865.50;7392028;19;1601;-41
2024/01/19 08:20:45;;;;;;;;;;;;;;;19.74;56.36;99868.63;7389974;19;1258;-40
2024/01/19 08:23:14;;;;;;;;;;;;;;;19.71;56.46;99866.25;7391915;19;1180;-40
2024/01/19 08:25:40;;;;;;;;;;;;;;;19.68;56.59;99872.75;7392997;19;1071;-40
2024/01/19 08:28:08;;;;;;;;;;;;;;;19.79;56.33;99885.06;7390195;19;1825;-40
2024/01/19 08:30:39;;;;;;;;;;;;;;;19.90;56.07;99869.69;7389862;19;1852;-38
2024/01/19 08:33:07;;;;;;;;;;;;;;;19.97;56.09;99886.78;7377597;19;1043;-39
2024/01/19 08:35:35;;;;;;;;;;;;;;;19.88;56.24;99890.47;7391647;19;1757;-38
2024/01/19 08:38:04;;;;;;;;;;;;;;;19.84;56.13;99884.59;7391595;19;1782;-39
2024/01/19 08:40:32;;;;;;;;;;;;;;;19.88;55.95;99882.44;7392590;19;1129;-38
2024/01/19 08:43:00;;;;;;;;;;;;;;;19.86;55.88;99888.78;7391979;19;1920;-38
2024/01/19 08:45:29;;;;;;;;;;;;;;;19.84;55.84;99888.09;7393002;19;1527;-38
2024/01/19 08:48:02;;;;;;;;;;;;;;;19.77;56.18;99900.47;7391678;19;1853;-38
2024/01/19 08:50:30;;;;;;;;;;;;;;;19.77;56.25;99895.09;7390256;19;1857;-38
2024/01/19 08:52:58;;;;;;;;;;;;;;;19.82;56.03;99881.22;7390344;19;1361;-38
2024/01/19 08:55:28;;;;;;;;;;;;;;;19.90;55.89;99891.16;7392170;19;1591;-38
2024/01/19 08:57:57;;;;;;;;;;;;;;;19.87;56.08;99873.50;7391884;19;1574;-38
2024/01/19 09:00:22;;;;;;;;;;;;;;;19.87;55.78;99870.81;7390171;19;1240;-38
2024/01/19 09:02:51;;;;;;;;;;;;;;;19.91;56.01;99876.72;7391488;19;1128;-39
2024/01/19 09:05:22;;;;;;;;;;;;;;;19.89;55.82;99881.41;7391768;19;1709;-38
2024/01/19 09:07:50;;;;;;;;;;;;;;;19.93;55.85;99861.28;7392732;19;1755;-39
2024/01/19 09:10:19;;;;;;;;;;;;;;;19.93;55.91;99882.75;7382529;19;1919;-39
2024/01/19 09:12:47;;;;;;;;;;;;;;;19.83;56.17;99864.94;7390938;19;1778;-38
2024/01/19 09:15:16;;;;;;;;;;;;;;;19.80;56.32;99873.34;7390672;19;1242;-38
2024/01/19 09:17:44;;;;;;;;;;;;;;;19.83;56.26;99894.44;7391333;19;1500;-38
2024/01/19 09:20:13;;;;;;;;;;;;;;;19.86;56.30;99886.09;7389819;19;1896;-38
2024/01/19 09:22:45;;;;;;;;;;;;;;;19.94;56.04;99879.91;7390768;19;1428;-39
2024/01/19 09:25:14;;;;;;;;;;;;;;;19.92;56.13;99881.94;7391768;19;1325;-38
2024/01/19 09:27:43;;;;;;;;;;;;;;;19.99;55.99;99895.53;7390972;19;1575;-38
2024/01/19 09:30:12;;;;;;;;;;;;;;;20.02;56.05;99873.75;7390372;19;1843;-38
2024/01/19 09:32:41;;;;;;;;;;;;;;;19.95;55.90;99873.53;7375917;19;1026;-38
2024/01/19 09:35:10;;;;;;;;;;;;;;;20.00;55.86;99881.94;7389660;19;1809;-38
2024/01/19 09:37:38;;;;;;;;;;;;;;;20.04;55.87;99882.47;7388961;19;1365;-38
2024/01/19 09:40:09;;;;;;;;;;;;;;;20.11;55.72;99888.84;7391784;19;1019;-38
2024/01/19 09:42:38;;;;;;;;;;;;;;;20.08;55.93;99878.44;7387855;19;1571;-38
2024/01/19 09:45:07;;;;;;;;;;;;;;;20.10;55.99;99883.66;7390450;19;1584;-38
2024/01/19 09:47:42;;;;;;;;;;;;;;;20.11;55.98;99870.06;7390012;19;1547;-38
2024/01/19 09:50:13;;;;;;;;;;;;;;;20.17;55.86;99882.81;7388800;19;1875;-38
2024/01/19 09:52:46;;;;;;;;;;;;;;;20.18;56.09;99891.72;7390754;19;1293;-38
2024/01/19 09:55:16;;;;;;;;;;;;;;;20.15;56.16;99874.09;7390373;19;1839;-38
2024/01/19 09:57:46;;;;;;;;;;;;;;;20.20;56.22;99887.88;7390880;19;1579;-38
2024/01/19 10:00:16;;;;;;;;;;;;;;;20.17;56.16;99861.34;7390141;19;1409;-38
2024/01/19 10:02:45;;;;;;;;;;;;;;;20.15;56.19;99879.44;7388387;19;1906;-45
2024/01/19 10:05:14;;;;;;;;;;;;;;;20.11;56.23;99866.53;7388496;19;1276;-38
2024/01/19 10:07:43;;;;;;;;;;;;;;;20.09;56.56;99869.38;7390379;19;1491;-38
2024/01/19 10:10:11;;;;;;;;;;;;;;;20.12;56.53;99865.53;7389860;19;1853;-38
2024/01/19 10:12:42;;;;;;;;;;;;;;;20.03;56.87;99864.66;7386865;19;1535;-38
2024/01/19 10:15:13;;;;;;;;;;;;;;;19.66;57.70;99876.59;7389632;19;1782;-38
2024/01/19 10:17:41;;;;;;;;;;;;;;;19.35;58.45;99858.34;7388126;19;1726;-38
2024/01/19 10:20:16;;;;;;;;;;;;;;;19.15;59.15;99859.59;7387305;19;1971;-38
2024/01/19 10:22:44;;;;;;;;;;;;;;;18.97;59.46;99857.81;7387925;19;1214;-38
2024/01/19 10:25:14;;;;;;;;;;;;;;;18.84;59.91;99849.31;7389118;19;1452;-38
2024/01/19 10:27:47;;;;;;;;;;;;;;;18.74;60.16;99862.81;7388897;19;1555;-37
2024/01/19 10:30:19;;;;;;;;;;;;;;;18.71;60.10;99852.41;7389085;19;1619;-37
2024/01/19 10:32:48;;;;;;;;;;;;;;;18.67;60.68;99857.22;7375350;19;1133;-38
2024/01/19 10:35:17;;;;;;;;;;;;;;;18.97;59.87;99846.25;7387872;19;1808;-38
2024/01/19 10:37:46;;;;;;;;;;;;;;;19.57;58.33;99837.34;7388411;19;1504;-37
2024/01/19 10:40:24;;;;;;;;;;;;;;;19.92;57.29;99830.94;7390327;19;1151;-38
2024/01/19 10:42:56;;;;;;;;;;;;;;;20.13;56.88;99843.06;7388853;19;1440;-38
2024/01/19 10:45:25;;;;;;;;;;;;;;;20.18;56.99;99840.72;7396498;19;1487;-37
2024/01/19 10:47:55;;;;;;;;;;;;;;;20.19;56.84;99843.25;7395920;19;1451;-38
2024/01/19 10:50:25;;;;;;;;;;;;;;;20.13;56.85;99843.06;7390598;19;2006;-37
2024/01/19 10:52:54;;;;;;;;;;;;;;;20.16;56.95;99838.19;7394242;19;1732;-38
2024/01/19 10:55:23;;;;;;;;;;;;;;;19.74;57.88;99854.38;7392532;19;1491;-38
2024/01/19 10:57:54;;;;;;;;;;;;;;;19.34;59.02;99843.28;7397753;19;1774;-38
2024/01/19 11:00:28;;;;;;;;;;;;;;;19.14;59.66;99836.47;7397446;19;1528;-38
2024/01/19 11:02:57;;;;;;;;;;;;;;;18.90;60.29;99850.53;7396389;19;1396;-37
2024/01/19 11:05:26;;;;;;;;;;;;;;;18.80;60.59;99856.00;7395649;19;1497;-38
2024/01/19 11:07:55;;;;;;;;;;;;;;;18.71;59.54;99843.53;7395026;19;1527;-37
2024/01/19 11:10:25;;;;;;;;;;;;;;;18.66;59.49;99839.50;7396641;19;1292;-38
2024/01/19 11:12:55;;;;;;;;;;;;;;;18.62;59.43;99848.84;7389665;19;1839;-37
2024/01/19 11:15:34;;;;;;;;;;;;;;;18.59;59.78;99850.97;7397006;19;1686;-37
2024/01/19 11:18:04;;;;;;;;;;;;;;;18.54;59.74;99846.06;7396730;19;1700;-42
2024/01/19 11:20:33;;;;;;;;;;;;;;;18.46;60.02;99838.81;7395016;19;1749;-38
2024/01/19 11:23:02;;;;;;;;;;;;;;;18.44;60.03;99831.94;7394100;19;1680;-38
2024/01/19 11:25:38;;;;;;;;;;;;;;;18.80;59.53;99837.25;7392966;19;1748;-38
2024/01/19 11:28:10;;;;;;;;;;;;;;;19.44;57.78;99827.06;7394884;19;1388;-38
2024/01/19 11:30:49;;;;;;;;;;;;;;;19.91;56.90;99844.53;7392374;19;1868;-38
2024/01/19 11:33:18;;;;;;;;;;;;;;;20.23;56.06;99839.22;7378565;19;1152;-38
2024/01/19 11:35:49;;;;;;;;;;;;;;;20.38;55.67;99819.75;7391682;19;1726;-38
2024/01/19 11:38:32;;;;;;;;;;;;;;;20.51;55.51;99840.72;7391955;19;1496;-38
2024/01/19 11:41:00;;;;;;;;;;;;;;;20.62;55.20;99827.00;7393433;19;1026;-38
2024/01/19 11:43:41;;;;;;;;;;;;;;;20.43;55.61;99818.25;7391712;19;1964;-38
2024/01/19 11:46:12;;;;;;;;;;;;;;;19.79;57.35;99836.75;7395833;19;1570;-38
2024/01/19 11:48:42;;;;;;;;;;;;;;;19.31;58.64;99827.50;7396009;19;1939;-38
2024/01/19 11:51:11;;;;;;;;;;;;;;;19.04;59.49;99828.56;7395392;19;1927;-38
2024/01/19 11:53:54;;;;;;;;;;;;;;;18.78;60.09;99839.22;7395843;19;1424;-38
2024/01/19 11:56:23;;;;;;;;;;;;;;;18.62;60.32;99824.72;7394786;19;1735;-38
2024/01/19 11:58:53;;;;;;;;;;;;;;;18.44;60.68;99851.53;7392742;19;1733;-38
2024/01/19 12:01:24;;;;;;;;;;;;;;;18.35;60.80;99841.72;7395688;19;1675;-38
2024/01/19 12:03:56;;;;;;;;;;;;;;;18.37;60.79;99850.44;7393987;19;1514;-38
2024/01/19 12:06:25;;;;;;;;;;;;;;;18.34;61.06;99837.34;7394854;19;1429;-38
2024/01/19 12:09:05;;;;;;;;;;;;;;;18.25;61.11;99854.34;7394784;19;1729;-38
2024/01/19 12:11:34;;;;;;;;;;;;;;;18.18;61.17;99847.91;7393942;19;1876;-38
2024/01/19 12:14:03;;;;;;;;;;;;;;;18.10;61.47;99851.34;7394762;19;1758;-38
2024/01/19 12:16:35;;;;;;;;;;;;;;;18.48;60.30;99836.84;7395791;19;1014;-38
2024/01/19 12:19:05;;;;;;;;;;;;;;;19.03;58.85;99818.81;7395460;19;1063;-38
2024/01/19 12:21:34;;;;;;;;;;;;;;;19.51;57.66;99824.56;7395067;19;1615;-38
2024/01/19 12:24:02;;;;;;;;;;;;;;;19.94;56.61;99817.38;7392340;19;1832;-38
2024/01/19 12:26:30;;;;;;;;;;;;;;;20.25;55.89;99825.59;7395439;19;1607;-38
2024/01/19 12:28:59;;;;;;;;;;;;;;;20.47;55.30;99821.41;7394548;19;1333;-38
2024/01/19 12:31:27;;;;;;;;;;;;;;;20.58;55.02;99820.25;7393351;19;1851;-38
2024/01/19 12:33:59;;;;;;;;;;;;;;;20.45;55.57;99815.38;7378867;19;1106;-38
2024/01/19 12:36:28;;;;;;;;;;;;;;;20.33;55.76;99830.16;7394597;19;1944;-38
2024/01/19 12:39:11;;;;;;;;;;;;;;;20.32;56.07;99832.00;7393702;19;1429;-38
2024/01/19 12:41:39;;;;;;;;;;;;;;;20.21;56.10;99841.25;7393551;19;1340;-38
2024/01/19 12:44:07;;;;;;;;;;;;;;;19.86;56.81;99842.34;7393649;19;1422;-38
2024/01/19 12:46:36;;;;;;;;;;;;;;;19.36;58.28;99869.91;7393759;19;1269;-38
2024/01/19 12:49:06;;;;;;;;;;;;;;;18.94;59.19;99867.97;7395152;19;985;-38
2024/01/19 12:51:35;;;;;;;;;;;;;;;18.67;60.06;99867.94;7393611;19;1935;-38
2024/01/19 12:54:03;;;;;;;;;;;;;;;18.51;60.43;99883.03;7393497;19;1856;-38
2024/01/19 12:56:34;;;;;;;;;;;;;;;18.40;60.42;99874.25;7393485;19;1920;-38
2024/01/19 12:59:10;;;;;;;;;;;;;;;18.33;60.85;99875.00;7394255;19;1749;-38
2024/01/19 13:01:39;;;;;;;;;;;;;;;18.21;60.92;99871.72;7392987;19;1827;-38
2024/01/19 13:04:10;;;;;;;;;;;;;;;18.12;60.96;99868.09;7392722;19;1831;-38
2024/01/19 13:06:42;;;;;;;;;;;;;;;18.54;60.34;99867.47;7392122;19;1562;-38
2024/01/19 13:09:10;;;;;;;;;;;;;;;19.18;58.62;99859.25;7392404;19;1809;-38